sensor_id;sensor_type;location;lat;lon;timestamp;pressure;altitude;pressure_sealevel;temperature;humidity
3096;BME280;1558;42.700;23.360;2022-11-11T00:01:11;96474.53;;;6.86;100.00
3096;BME280;1558;42.700;23.360;2022-11-11T00:03:40;96460.66;;;6.74;100.00
3096;BME280;1558;42.700;23.360;2022-11-11T00:06:09;96480.41;;;6.88;100.00
3096;BME280;1558;42.700;23.360;2022-11-11T00:08:37;96471.06;;;6.80;100.00
3096;BME280;1558;42.700;23.360;2022-11-11T00:11:10;96456.63;;;6.76;100.00
3096;BME280;1558;42.700;23.360;2022-11-11T00:13:39;96475.56;;;6.90;100.00
3096;BME280;1558;42.700;23.360;2022-11-11T00:16:08;96469.13;;;6.91;100.00
3096;BME280;1558;42.700;23.360;2022-11-11T00:18:37;96468.78;;;7.03;100.00
3096;BME280;1558;42.700;23.360;2022-11-11T00:21:23;96471.75;;;7.01;100.00
3096;BME280;1558;42.700;23.360;2022-11-11T00:24:23;96465.25;;;7.07;100.00
3096;BME280;1558;42.700;23.360;2022-11-11T00:27:11;96465.44;;;7.16;100.00
3096;BME280;1558;42.700;23.360;2022-11-11T00:29:39;96475.25;;;7.30;100.00
3096;BME280;1558;42.700;23.360;2022-11-11T00:32:08;96476.06;;;7.31;100.00
3096;BME280;1558;42.700;23.360;2022-11-11T00:34:54;96482.16;;;7.41;100.00
3096;BME280;1558;42.700;23.360;2022-11-11T00:37:42;96474.75;;;7.28;100.00
3096;BME280;1558;42.700;23.360;2022-11-11T00:40:11;96482.34;;;7.16;100.00
3096;BME280;1558;42.700;23.360;2022-11-11T00:42:41;96448.28;;;6.83;100.00
3096;BME280;1558;42.700;23.360;2022-11-11T00:45:10;96481.69;;;7.01;100.00
3096;BME280;1558;42.700;23.360;2022-11-11T00:47:38;96470.19;;;6.90;100.00
3096;BME280;1558;42.700;23.360;2022-11-11T00:50:25;96474.75;;;6.90;100.00
3096;BME280;1558;42.700;23.360;2022-11-11T00:53:26;96479.81;;;7.01;100.00
3096;BME280;1558;42.700;23.360;2022-11-11T00:55:56;96476.06;;;6.97;100.00
3096;BME280;1558;42.700;23.360;2022-11-11T00:58:25;96477.16;;;6.96;100.00
3096;BME280;1558;42.700;23.360;2022-11-11T01:00:54;96472.00;;;7.00;100.00
3096;BME280;1558;42.700;23.360;2022-11-11T01:03:22;96469.56;;;7.08;100.00
3096;BME280;1558;42.700;23.360;2022-11-11T01:05:50;96459.38;;;7.05;100.00
3096;BME280;1558;42.700;23.360;2022-11-11T01:08:18;96465.22;;;7.12;100.00
3096;BME280;1558;42.700;23.360;2022-11-11T01:10:46;96485.66;;;7.08;100.00
3096;BME280;1558;42.700;23.360;2022-11-11T01:13:17;96475.03;;;6.93;100.00
3096;BME280;1558;42.700;23.360;2022-11-11T01:15:48;96413.84;;;6.61;100.00
3096;BME280;1558;42.700;23.360;2022-11-11T01:18:19;96461.53;;;7.03;100.00
3096;BME280;1558;42.700;23.360;2022-11-11T01:20:56;96461.81;;;7.02;100.00
3096;BME280;1558;42.700;23.360;2022-11-11T01:23:24;96451.41;;;6.95;100.00
3096;BME280;1558;42.700;23.360;2022-11-11T01:25:52;96463.16;;;6.99;100.00
3096;BME280;1558;42.700;23.360;2022-11-11T01:28:20;96470.13;;;7.00;100.00
3096;BME280;1558;42.700;23.360;2022-11-11T01:30:50;96451.78;;;6.78;100.00
3096;BME280;1558;42.700;23.360;2022-11-11T01:33:18;96463.28;;;6.84;100.00
3096;BME280;1558;42.700;23.360;2022-11-11T01:35:46;96462.13;;;6.95;100.00
3096;BME280;1558;42.700;23.360;2022-11-11T01:38:14;96454.94;;;6.91;100.00
3096;BME280;1558;42.700;23.360;2022-11-11T01:40:43;96468.63;;;6.89;100.00
3096;BME280;1558;42.700;23.360;2022-11-11T01:43:21;96462.13;;;6.95;100.00
3096;BME280;1558;42.700;23.360;2022-11-11T01:45:54;96461.09;;;6.91;100.00
3096;BME280;1558;42.700;23.360;2022-11-11T01:48:28;96464.28;;;6.93;100.00
3096;BME280;1558;42.700;23.360;2022-11-11T01:51:37;96466.50;;;6.86;100.00
3096;BME280;1558;42.700;23.360;2022-11-11T01:54:10;96464.19;;;6.69;100.00
3096;BME280;1558;42.700;23.360;2022-11-11T01:56:40;96471.22;;;6.60;100.00
3096;BME280;1558;42.700;23.360;2022-11-11T01:59:30;96470.38;;;6.65;100.00
3096;BME280;1558;42.700;23.360;2022-11-11T02:02:00;96471.44;;;6.64;100.00
3096;BME280;1558;42.700;23.360;2022-11-11T02:04:30;96483.06;;;6.49;100.00
3096;BME280;1558;42.700;23.360;2022-11-11T02:07:16;96474.81;;;6.36;100.00
3096;BME280;1558;42.700;23.360;2022-11-11T02:09:46;96474.31;;;6.29;100.00
3096;BME280;1558;42.700;23.360;2022-11-11T02:12:14;96487.16;;;6.32;100.00
3096;BME280;1558;42.700;23.360;2022-11-11T02:15:01;96488.22;;;6.31;100.00
3096;BME280;1558;42.700;23.360;2022-11-11T02:17:31;96487.41;;;6.30;100.00
3096;BME280;1558;42.700;23.360;2022-11-11T02:20:01;96472.78;;;6.12;100.00
3096;BME280;1558;42.700;23.360;2022-11-11T02:22:35;96477.88;;;6.04;100.00
3096;BME280;1558;42.700;23.360;2022-11-11T02:25:09;96490.50;;;5.98;100.00
3096;BME280;1558;42.700;23.360;2022-11-11T02:27:41;96471.53;;;5.85;100.00
3096;BME280;1558;42.700;23.360;2022-11-11T02:30:10;96260.78;;;4.42;100.00
3096;BME280;1558;42.700;23.360;2022-11-11T02:32:43;96487.03;;;5.88;100.00
3096;BME280;1558;42.700;23.360;2022-11-11T02:35:13;96490.78;;;5.82;100.00
3096;BME280;1558;42.700;23.360;2022-11-11T02:37:44;96486.78;;;5.89;100.00
3096;BME280;1558;42.700;23.360;2022-11-11T02:40:17;96489.69;;;5.98;100.00
3096;BME280;1558;42.700;23.360;2022-11-11T02:42:45;96487.25;;;6.01;100.00
3096;BME280;1558;42.700;23.360;2022-11-11T02:45:13;96484.03;;;6.09;100.00
3096;BME280;1558;42.700;23.360;2022-11-11T02:47:41;96491.56;;;6.02;100.00
3096;BME280;1558;42.700;23.360;2022-11-11T02:50:09;96485.47;;;5.87;100.00
3096;BME280;1558;42.700;23.360;2022-11-11T02:52:37;96489.47;;;5.74;100.00
3096;BME280;1558;42.700;23.360;2022-11-11T02:55:06;96494.81;;;5.74;100.00
3096;BME280;1558;42.700;23.360;2022-11-11T02:57:36;96489.19;;;5.86;100.00
3096;BME280;1558;42.700;23.360;2022-11-11T03:00:05;96500.41;;;5.78;100.00
3096;BME280;1558;42.700;23.360;2022-11-11T03:02:33;96502.06;;;5.64;100.00
3096;BME280;1558;42.700;23.360;2022-11-11T03:05:01;96479.31;;;5.61;100.00
3096;BME280;1558;42.700;23.360;2022-11-11T03:07:29;96500.72;;;5.61;100.00
3096;BME280;1558;42.700;23.360;2022-11-11T03:09:57;96460.38;;;5.32;100.00
3096;BME280;1558;42.700;23.360;2022-11-11T03:12:25;96499.94;;;5.51;100.00
3096;BME280;1558;42.700;23.360;2022-11-11T03:14:55;96498.31;;;5.49;100.00
3096;BME280;1558;42.700;23.360;2022-11-11T03:17:23;96498.59;;;5.43;100.00
3096;BME280;1558;42.700;23.360;2022-11-11T03:20:06;96463.88;;;5.08;100.00
3096;BME280;1558;42.700;23.360;2022-11-11T03:22:59;96379.91;;;4.68;100.00
3096;BME280;1558;42.700;23.360;2022-11-11T03:25:27;96495.13;;;5.47;100.00
3096;BME280;1558;42.700;23.360;2022-11-11T03:28:05;96477.72;;;5.40;100.00
3096;BME280;1558;42.700;23.360;2022-11-11T03:30:34;96481.50;;;5.39;100.00
3096;BME280;1558;42.700;23.360;2022-11-11T03:33:03;96488.97;;;5.42;100.00
3096;BME280;1558;42.700;23.360;2022-11-11T03:35:31;96489.25;;;5.51;100.00
3096;BME280;1558;42.700;23.360;2022-11-11T03:37:59;96486.28;;;5.52;100.00
3096;BME280;1558;42.700;23.360;2022-11-11T03:40:42;96487.38;;;5.56;100.00
3096;BME280;1558;42.700;23.360;2022-11-11T03:43:10;96486.00;;;5.69;100.00
3096;BME280;1558;42.700;23.360;2022-11-11T03:45:40;96500.19;;;5.84;100.00
3096;BME280;1558;42.700;23.360;2022-11-11T03:48:08;96499.38;;;5.89;100.00
3096;BME280;1558;42.700;23.360;2022-11-11T03:50:37;96491.84;;;5.96;100.00
3096;BME280;1558;42.700;23.360;2022-11-11T03:53:06;96491.84;;;6.06;100.00
3096;BME280;1558;42.700;23.360;2022-11-11T03:55:34;96441.81;;;5.81;100.00
3096;BME280;1558;42.700;23.360;2022-11-11T03:58:02;96495.84;;;6.08;100.00
3096;BME280;1558;42.700;23.360;2022-11-11T04:00:30;96488.56;;;6.14;100.00
3096;BME280;1558;42.700;23.360;2022-11-11T04:03:03;96484.00;;;6.20;100.00
3096;BME280;1558;42.700;23.360;2022-11-11T04:05:50;96484.03;;;6.14;100.00
3096;BME280;1558;42.700;23.360;2022-11-11T04:08:35;96482.63;;;6.27;100.00
3096;BME280;1558;42.700;23.360;2022-11-11T04:11:37;96469.47;;;6.36;100.00
3096;BME280;1558;42.700;23.360;2022-11-11T04:14:08;96474.78;;;6.41;100.00
3096;BME280;1558;42.700;23.360;2022-11-11T04:16:53;96491.84;;;6.60;100.00
3096;BME280;1558;42.700;23.360;2022-11-11T04:19:23;96333.94;;;5.76;100.00
3096;BME280;1558;42.700;23.360;2022-11-11T04:22:09;96479.47;;;6.69;100.00
3096;BME280;1558;42.700;23.360;2022-11-11T04:24:37;96487.19;;;6.75;100.00
3096;BME280;1558;42.700;23.360;2022-11-11T04:27:23;96476.81;;;6.64;100.00
3096;BME280;1558;42.700;23.360;2022-11-11T04:29:50;96489.69;;;6.62;100.00
3096;BME280;1558;42.700;23.360;2022-11-11T04:32:19;96499.31;;;6.68;100.00
3096;BME280;1558;42.700;23.360;2022-11-11T04:35:08;96498.19;;;6.74;100.00
3096;BME280;1558;42.700;23.360;2022-11-11T04:37:44;96476.56;;;6.65;100.00
3096;BME280;1558;42.700;23.360;2022-11-11T04:40:15;96501.56;;;6.90;100.00
3096;BME280;1558;42.700;23.360;2022-11-11T04:43:00;96494.56;;;6.99;100.00
3096;BME280;1558;42.700;23.360;2022-11-11T04:45:28;96499.88;;;7.04;100.00
3096;BME280;1558;42.700;23.360;2022-11-11T04:47:58;96490.47;;;7.06;100.00
3096;BME280;1558;42.700;23.360;2022-11-11T04:50:29;96492.31;;;7.11;100.00
3096;BME280;1558;42.700;23.360;2022-11-11T04:52:58;96491.69;;;7.24;100.00
3096;BME280;1558;42.700;23.360;2022-11-11T04:55:26;96460.41;;;7.09;100.00
3096;BME280;1558;42.700;23.360;2022-11-11T04:58:12;96480.63;;;7.30;100.00
3096;BME280;1558;42.700;23.360;2022-11-11T05:00:40;96504.09;;;7.48;100.00
3096;BME280;1558;42.700;23.360;2022-11-11T05:03:09;96468.19;;;7.39;100.00
3096;BME280;1558;42.700;23.360;2022-11-11T05:05:46;96499.94;;;7.90;100.00
3096;BME280;1558;42.700;23.360;2022-11-11T05:08:33;96482.25;;;8.12;100.00
3096;BME280;1558;42.700;23.360;2022-11-11T05:11:20;96436.56;;;8.12;100.00
3096;BME280;1558;42.700;23.360;2022-11-11T05:13:48;96495.03;;;8.44;100.00
3096;BME280;1558;42.700;23.360;2022-11-11T05:16:36;96499.22;;;7.84;100.00
3096;BME280;1558;42.700;23.360;2022-11-11T05:19:22;96482.03;;;7.51;100.00
3096;BME280;1558;42.700;23.360;2022-11-11T05:22:13;96505.31;;;7.61;100.00
3096;BME280;1558;42.700;23.360;2022-11-11T05:24:43;96489.41;;;7.41;100.00
3096;BME280;1558;42.700;23.360;2022-11-11T05:27:28;96510.13;;;7.30;100.00
3096;BME280;1558;42.700;23.360;2022-11-11T05:29:56;96508.09;;;7.17;100.00
3096;BME280;1558;42.700;23.360;2022-11-11T05:32:25;96514.56;;;7.11;100.00
3096;BME280;1558;42.700;23.360;2022-11-11T05:34:53;96520.84;;;6.97;100.00
3096;BME280;1558;42.700;23.360;2022-11-11T05:37:22;96523.00;;;6.95;100.00
3096;BME280;1558;42.700;23.360;2022-11-11T05:39:50;96521.38;;;6.99;100.00
3096;BME280;1558;42.700;23.360;2022-11-11T05:42:18;96536.88;;;7.07;100.00
3096;BME280;1558;42.700;23.360;2022-11-11T05:44:46;96529.56;;;7.17;100.00
3096;BME280;1558;42.700;23.360;2022-11-11T05:47:14;96549.91;;;7.23;100.00
3096;BME280;1558;42.700;23.360;2022-11-11T05:49:42;96547.50;;;7.22;100.00
3096;BME280;1558;42.700;23.360;2022-11-11T05:52:13;96553.38;;;7.29;100.00
3096;BME280;1558;42.700;23.360;2022-11-11T05:54:43;96549.78;;;7.43;100.00
3096;BME280;1558;42.700;23.360;2022-11-11T05:57:11;96549.75;;;7.48;100.00
3096;BME280;1558;42.700;23.360;2022-11-11T05:59:39;96556.03;;;7.68;100.00
3096;BME280;1558;42.700;23.360;2022-11-11T06:02:07;96566.94;;;7.76;100.00
3096;BME280;1558;42.700;23.360;2022-11-11T06:04:35;96566.06;;;7.86;100.00
3096;BME280;1558;42.700;23.360;2022-11-11T06:07:05;96570.91;;;7.84;100.00
3096;BME280;1558;42.700;23.360;2022-11-11T06:09:33;96570.06;;;7.88;100.00
3096;BME280;1558;42.700;23.360;2022-11-11T06:12:02;96577.44;;;8.01;100.00
3096;BME280;1558;42.700;23.360;2022-11-11T06:14:30;96559.28;;;7.93;100.00
3096;BME280;1558;42.700;23.360;2022-11-11T06:16:58;96570.28;;;7.92;100.00
3096;BME280;1558;42.700;23.360;2022-11-11T06:19:25;96575.41;;;7.93;100.00
3096;BME280;1558;42.700;23.360;2022-11-11T06:21:53;96572.47;;;7.90;100.00
3096;BME280;1558;42.700;23.360;2022-11-11T06:24:24;96570.31;;;7.87;100.00
3096;BME280;1558;42.700;23.360;2022-11-11T06:26:53;96588.72;;;8.03;100.00
3096;BME280;1558;42.700;23.360;2022-11-11T06:29:22;96588.72;;;8.03;100.00
3096;BME280;1558;42.700;23.360;2022-11-11T06:31:51;96586.34;;;7.97;100.00
3096;BME280;1558;42.700;23.360;2022-11-11T06:34:18;96573.00;;;7.87;100.00
3096;BME280;1558;42.700;23.360;2022-11-11T06:36:46;96596.88;;;8.22;100.00
3096;BME280;1558;42.700;23.360;2022-11-11T06:39:14;96600.78;;;8.35;100.00
3096;BME280;1558;42.700;23.360;2022-11-11T06:41:42;96606.31;;;8.48;100.00
3096;BME280;1558;42.700;23.360;2022-11-11T06:44:10;96608.31;;;8.61;100.00
3096;BME280;1558;42.700;23.360;2022-11-11T06:46:39;96607.63;;;8.74;100.00
3096;BME280;1558;42.700;23.360;2022-11-11T06:49:07;96603.28;;;8.78;100.00
3096;BME280;1558;42.700;23.360;2022-11-11T06:51:35;96602.66;;;9.05;100.00
3096;BME280;1558;42.700;23.360;2022-11-11T06:54:03;96552.19;;;9.16;100.00
3096;BME280;1558;42.700;23.360;2022-11-11T06:56:31;96601.06;;;9.79;100.00
3096;BME280;1558;42.700;23.360;2022-11-11T06:58:59;96572.50;;;9.78;100.00
3096;BME280;1558;42.700;23.360;2022-11-11T07:01:27;96590.06;;;10.07;100.00
3096;BME280;1558;42.700;23.360;2022-11-11T07:03:56;96606.28;;;10.21;100.00
3096;BME280;1558;42.700;23.360;2022-11-11T07:06:24;96605.63;;;10.29;100.00
3096;BME280;1558;42.700;23.360;2022-11-11T07:08:52;96604.44;;;10.35;100.00
3096;BME280;1558;42.700;23.360;2022-11-11T07:11:20;96620.22;;;10.42;100.00
3096;BME280;1558;42.700;23.360;2022-11-11T07:13:48;96561.84;;;10.18;100.00
3096;BME280;1558;42.700;23.360;2022-11-11T07:16:15;96592.66;;;10.45;100.00
3096;BME280;1558;42.700;23.360;2022-11-11T07:18:43;96612.44;;;10.54;100.00
3096;BME280;1558;42.700;23.360;2022-11-11T07:21:12;96609.47;;;10.55;100.00
3096;BME280;1558;42.700;23.360;2022-11-11T07:23:40;96602.63;;;10.58;100.00
3096;BME280;1558;42.700;23.360;2022-11-11T07:26:08;96619.94;;;10.57;100.00
3096;BME280;1558;42.700;23.360;2022-11-11T07:28:36;96615.53;;;10.61;100.00
3096;BME280;1558;42.700;23.360;2022-11-11T07:31:04;96613.88;;;10.65;100.00
3096;BME280;1558;42.700;23.360;2022-11-11T07:33:32;96615.03;;;10.72;100.00
3096;BME280;1558;42.700;23.360;2022-11-11T07:36:00;96626.63;;;10.73;100.00
3096;BME280;1558;42.700;23.360;2022-11-11T07:38:30;96620.16;;;10.74;100.00
3096;BME280;1558;42.700;23.360;2022-11-11T07:40:57;96628.53;;;10.72;100.00
3096;BME280;1558;42.700;23.360;2022-11-11T07:43:25;96481.81;;;9.87;100.00
3096;BME280;1558;42.700;23.360;2022-11-11T07:45:53;96583.16;;;10.47;100.00
3096;BME280;1558;42.700;23.360;2022-11-11T07:48:21;96628.66;;;10.81;100.00
3096;BME280;1558;42.700;23.360;2022-11-11T07:50:50;96639.84;;;10.88;100.00
3096;BME280;1558;42.700;23.360;2022-11-11T07:53:19;96630.25;;;10.82;100.00
3096;BME280;1558;42.700;23.360;2022-11-11T07:55:49;96606.34;;;10.62;100.00
3096;BME280;1558;42.700;23.360;2022-11-11T07:58:17;96642.66;;;10.83;100.00
3096;BME280;1558;42.700;23.360;2022-11-11T08:00:45;96641.13;;;10.77;100.00
3096;BME280;1558;42.700;23.360;2022-11-11T08:03:13;96637.34;;;10.78;100.00
3096;BME280;1558;42.700;23.360;2022-11-11T08:05:42;96619.94;;;10.57;100.00
3096;BME280;1558;42.700;23.360;2022-11-11T08:08:10;96635.31;;;10.70;100.00
3096;BME280;1558;42.700;23.360;2022-11-11T08:10:38;96634.25;;;10.71;100.00
3096;BME280;1558;42.700;23.360;2022-11-11T08:13:09;96581.38;;;10.43;100.00
3096;BME280;1558;42.700;23.360;2022-11-11T08:15:55;96647.94;;;10.88;100.00
3096;BME280;1558;42.700;23.360;2022-11-11T08:18:23;96648.84;;;10.97;100.00
3096;BME280;1558;42.700;23.360;2022-11-11T08:20:52;96650.84;;;11.05;100.00
3096;BME280;1558;42.700;23.360;2022-11-11T08:23:21;96653.94;;;11.12;100.00
3096;BME280;1558;42.700;23.360;2022-11-11T08:26:18;96650.25;;;11.22;100.00
3096;BME280;1558;42.700;23.360;2022-11-11T08:28:56;96653.03;;;11.30;100.00
3096;BME280;1558;42.700;23.360;2022-11-11T08:31:24;96657.19;;;11.36;100.00
3096;BME280;1558;42.700;23.360;2022-11-11T08:33:52;96638.59;;;11.35;100.00
3096;BME280;1558;42.700;23.360;2022-11-11T08:36:20;96650.13;;;11.40;100.00
3096;BME280;1558;42.700;23.360;2022-11-11T08:38:49;96650.06;;;11.54;100.00
3096;BME280;1558;42.700;23.360;2022-11-11T08:41:17;96641.28;;;11.48;100.00
3096;BME280;1558;42.700;23.360;2022-11-11T08:43:50;96650.06;;;11.54;100.00
3096;BME280;1558;42.700;23.360;2022-11-11T08:46:20;96653.16;;;11.61;100.00
3096;BME280;1558;42.700;23.360;2022-11-11T08:48:48;96653.25;;;11.70;100.00
3096;BME280;1558;42.700;23.360;2022-11-11T08:51:15;96652.16;;;11.71;100.00
3096;BME280;1558;42.700;23.360;2022-11-11T08:53:43;96652.75;;;11.81;100.00
3096;BME280;1558;42.700;23.360;2022-11-11T08:56:11;96654.91;;;11.93;100.00
3096;BME280;1558;42.700;23.360;2022-11-11T08:58:39;96654.28;;;11.96;100.00
3096;BME280;1558;42.700;23.360;2022-11-11T09:01:10;96653.88;;;12.02;100.00
3096;BME280;1558;42.700;23.360;2022-11-11T09:03:41;96611.88;;;11.83;100.00
3096;BME280;1558;42.700;23.360;2022-11-11T09:06:11;96654.53;;;12.08;100.00
3096;BME280;1558;42.700;23.360;2022-11-11T09:08:41;96651.22;;;12.11;100.00
3096;BME280;1558;42.700;23.360;2022-11-11T09:11:09;96647.78;;;12.19;100.00
3096;BME280;1558;42.700;23.360;2022-11-11T09:13:37;96612.38;;;12.07;100.00
3096;BME280;1558;42.700;23.360;2022-11-11T09:16:07;96644.19;;;12.32;100.00
3096;BME280;1558;42.700;23.360;2022-11-11T09:18:34;96640.16;;;12.21;100.00
3096;BME280;1558;42.700;23.360;2022-11-11T09:21:04;96650.72;;;12.31;100.00
3096;BME280;1558;42.700;23.360;2022-11-11T09:23:32;96623.94;;;12.21;100.00
3096;BME280;1558;42.700;23.360;2022-11-11T09:26:00;96643.22;;;12.50;100.00
3096;BME280;1558;42.700;23.360;2022-11-11T09:28:31;96641.59;;;12.49;100.00
3096;BME280;1558;42.700;23.360;2022-11-11T09:31:00;96652.06;;;12.42;100.00
3096;BME280;1558;42.700;23.360;2022-11-11T09:33:48;96651.44;;;12.45;100.00
3096;BME280;1558;42.700;23.360;2022-11-11T09:36:18;96627.22;;;12.40;100.00
3096;BME280;1558;42.700;23.360;2022-11-11T09:38:46;96634.84;;;12.38;100.00
3096;BME280;1558;42.700;23.360;2022-11-11T09:41:18;96629.69;;;12.28;100.00
3096;BME280;1558;42.700;23.360;2022-11-11T09:43:51;96644.69;;;12.34;100.00
3096;BME280;1558;42.700;23.360;2022-11-11T09:46:28;96637.03;;;12.36;100.00
3096;BME280;1558;42.700;23.360;2022-11-11T09:49:15;96631.03;;;12.39;100.00
3096;BME280;1558;42.700;23.360;2022-11-11T09:51:52;96619.09;;;12.40;100.00
3096;BME280;1558;42.700;23.360;2022-11-11T09:54:29;96617.09;;;12.54;100.00
3096;BME280;1558;42.700;23.360;2022-11-11T09:56:59;96624.72;;;12.83;100.00
3096;BME280;1558;42.700;23.360;2022-11-11T09:59:38;96619.59;;;12.81;100.00
3096;BME280;1558;42.700;23.360;2022-11-11T10:02:16;96621.56;;;12.98;100.00
3096;BME280;1558;42.700;23.360;2022-11-11T10:04:52;96622.75;;;13.06;100.00
3096;BME280;1558;42.700;23.360;2022-11-11T10:07:33;96629.28;;;13.05;100.00
3096;BME280;1558;42.700;23.360;2022-11-11T10:10:15;96619.84;;;13.02;100.00
3096;BME280;1558;42.700;23.360;2022-11-11T10:12:49;96620.16;;;13.01;100.00
3096;BME280;1558;42.700;23.360;2022-11-11T10:15:19;96619.81;;;12.93;100.00
3096;BME280;1558;42.700;23.360;2022-11-11T10:17:55;96609.06;;;12.71;100.00
3096;BME280;1558;42.700;23.360;2022-11-11T10:20:31;96614.13;;;12.64;100.00
3096;BME280;1558;42.700;23.360;2022-11-11T10:23:07;96625.72;;;12.56;100.00
3096;BME280;1558;42.700;23.360;2022-11-11T10:25:43;96620.31;;;12.56;100.00
3096;BME280;1558;42.700;23.360;2022-11-11T10:28:16;96620.31;;;12.56;100.00
3096;BME280;1558;42.700;23.360;2022-11-11T10:30:46;96610.72;;;12.50;100.00
3096;BME280;1558;42.700;23.360;2022-11-11T10:33:18;96597.94;;;12.42;100.00
3096;BME280;1558;42.700;23.360;2022-11-11T10:35:49;96614.09;;;12.56;100.00
3096;BME280;1558;42.700;23.360;2022-11-11T10:38:29;96613.91;;;12.52;100.00
3096;BME280;1558;42.700;23.360;2022-11-11T10:41:04;96616.63;;;12.52;100.00
3096;BME280;1558;42.700;23.360;2022-11-11T10:43:37;96622.19;;;12.56;100.00
3096;BME280;1558;42.700;23.360;2022-11-11T10:46:11;96615.69;;;12.57;100.00
3096;BME280;1558;42.700;23.360;2022-11-11T10:48:49;96614.88;;;12.56;100.00
3096;BME280;1558;42.700;23.360;2022-11-11T10:51:20;96610.56;;;12.55;100.00
3096;BME280;1558;42.700;23.360;2022-11-11T10:53:57;96476.00;;;11.69;100.00
3096;BME280;1558;42.700;23.360;2022-11-11T10:56:34;96579.13;;;12.37;100.00
3096;BME280;1558;42.700;23.360;2022-11-11T10:59:10;96543.75;;;12.25;100.00
3096;BME280;1558;42.700;23.360;2022-11-11T11:01:46;96612.66;;;12.58;100.00
3096;BME280;1558;42.700;23.360;2022-11-11T11:04:21;96601.91;;;12.75;100.00
3096;BME280;1558;42.700;23.360;2022-11-11T11:06:51;96575.81;;;12.79;100.00
3096;BME280;1558;42.700;23.360;2022-11-11T11:09:25;96551.44;;;12.79;100.00
3096;BME280;1558;42.700;23.360;2022-11-11T11:11:59;96584.06;;;13.22;100.00
3096;BME280;1558;42.700;23.360;2022-11-11T11:14:32;96594.63;;;13.49;100.00
3096;BME280;1558;42.700;23.360;2022-11-11T11:17:07;96588.09;;;13.42;100.00
3096;BME280;1558;42.700;23.360;2022-11-11T11:19:36;96578.34;;;13.32;100.00
3096;BME280;1558;42.700;23.360;2022-11-11T11:22:04;96587.75;;;13.35;100.00
3096;BME280;1558;42.700;23.360;2022-11-11T11:24:34;96597.00;;;13.34;100.00
3096;BME280;1558;42.700;23.360;2022-11-11T11:27:09;96582.19;;;13.48;100.00
3096;BME280;1558;42.700;23.360;2022-11-11T11:29:39;96575.97;;;13.48;98.19
3096;BME280;1558;42.700;23.360;2022-11-11T11:32:13;96576.47;;;13.50;96.65
3096;BME280;1558;42.700;23.360;2022-11-11T11:34:47;96571.03;;;13.67;93.16
3096;BME280;1558;42.700;23.360;2022-11-11T11:37:16;96574.06;;;13.66;91.54
3096;BME280;1558;42.700;23.360;2022-11-11T11:39:46;96580.91;;;13.72;92.00
3096;BME280;1558;42.700;23.360;2022-11-11T11:42:28;96565.75;;;13.79;88.68
3096;BME280;1558;42.700;23.360;2022-11-11T11:44:56;96569.94;;;13.60;87.51
3096;BME280;1558;42.700;23.360;2022-11-11T11:47:37;96564.50;;;13.51;86.19
3096;BME280;1558;42.700;23.360;2022-11-11T11:50:23;96564.47;;;13.34;86.79
3096;BME280;1558;42.700;23.360;2022-11-11T11:53:06;96562.09;;;13.24;88.02
3096;BME280;1558;42.700;23.360;2022-11-11T11:55:42;96567.66;;;13.19;89.08
3096;BME280;1558;42.700;23.360;2022-11-11T11:58:20;96565.44;;;13.21;89.70
3096;BME280;1558;42.700;23.360;2022-11-11T12:01:00;96485.63;;;12.70;89.70
3096;BME280;1558;42.700;23.360;2022-11-11T12:03:47;96560.00;;;13.21;89.40
3096;BME280;1558;42.700;23.360;2022-11-11T12:06:26;96564.63;;;13.29;89.94
3096;BME280;1558;42.700;23.360;2022-11-11T12:09:06;96560.47;;;13.31;90.99
3096;BME280;1558;42.700;23.360;2022-11-11T12:11:46;96551.41;;;13.27;90.70
3096;BME280;1558;42.700;23.360;2022-11-11T12:14:48;96561.44;;;13.27;90.52
3096;BME280;1558;42.700;23.360;2022-11-11T12:17:28;96556.69;;;13.24;89.38
3096;BME280;1558;42.700;23.360;2022-11-11T12:20:03;96559.06;;;13.25;88.51
3096;BME280;1558;42.700;23.360;2022-11-11T12:22:44;96554.13;;;13.27;88.89
3096;BME280;1558;42.700;23.360;2022-11-11T12:25:19;96547.41;;;13.25;88.41
3096;BME280;1558;42.700;23.360;2022-11-11T12:28:01;96544.72;;;13.25;88.09
3096;BME280;1558;42.700;23.360;2022-11-11T12:30:32;96533.53;;;13.18;87.45
3096;BME280;1558;42.700;23.360;2022-11-11T12:33:14;96544.72;;;13.25;87.18
3096;BME280;1558;42.700;23.360;2022-11-11T12:36:01;96542.31;;;13.23;86.73
3096;BME280;1558;42.700;23.360;2022-11-11T12:38:52;96536.09;;;13.23;86.88
3096;BME280;1558;42.700;23.360;2022-11-11T12:41:34;96541.53;;;13.23;86.96
3096;BME280;1558;42.700;23.360;2022-11-11T12:44:09;96539.91;;;13.22;88.09
3096;BME280;1558;42.700;23.360;2022-11-11T12:46:53;96535.16;;;13.19;88.84
3096;BME280;1558;42.700;23.360;2022-11-11T12:49:39;96537.53;;;13.20;90.11
3096;BME280;1558;42.700;23.360;2022-11-11T12:52:19;96533.72;;;13.21;90.66
3096;BME280;1558;42.700;23.360;2022-11-11T12:55:06;96525.88;;;13.20;91.75
3096;BME280;1558;42.700;23.360;2022-11-11T12:58:01;96536.56;;;13.25;91.94
3096;BME280;1558;42.700;23.360;2022-11-11T13:00:33;96537.72;;;13.24;91.31
3096;BME280;1558;42.700;23.360;2022-11-11T13:03:17;96528.13;;;13.18;91.36
3096;BME280;1558;42.700;23.360;2022-11-11T13:05:55;96544.22;;;13.23;91.68
3096;BME280;1558;42.700;23.360;2022-11-11T13:08:52;96531.91;;;13.00;91.25
3096;BME280;1558;42.700;23.360;2022-11-11T13:11:29;96549.47;;;13.11;91.14
3096;BME280;1558;42.700;23.360;2022-11-11T13:14:12;96546.28;;;13.09;92.04
3096;BME280;1558;42.700;23.360;2022-11-11T13:16:49;96485.50;;;12.67;93.29
3096;BME280;1558;42.700;23.360;2022-11-11T13:19:20;96544.88;;;13.71;100.00
3096;BME280;1558;42.700;23.360;2022-11-11T13:21:53;96539.78;;;13.78;92.46
3096;BME280;1558;42.700;23.360;2022-11-11T13:24:23;96541.38;;;13.45;89.94
3096;BME280;1558;42.700;23.360;2022-11-11T13:26:55;96552.34;;;13.23;90.08
3096;BME280;1558;42.700;23.360;2022-11-11T13:29:55;96550.09;;;13.08;91.09
3096;BME280;1558;42.700;23.360;2022-11-11T13:32:32;96537.00;;;12.93;91.86
3096;BME280;1558;42.700;23.360;2022-11-11T13:35:14;96551.00;;;12.95;92.07
3096;BME280;1558;42.700;23.360;2022-11-11T13:37:46;96545.13;;;12.93;92.06
3096;BME280;1558;42.700;23.360;2022-11-11T13:40:33;96555.13;;;12.92;92.14